Time;durP1;ratioP1;P1;durP2;ratioP2;P2;SDS_P1;SDS_P2;PMS_P1;PMS_P2;Temp;Humidity;BMP_temperature;BMP_pressure;BME280_temperature;BME280_humidity;BME280_pressure;Samples;Min_cycle;Max_cycle;Signal;HPM_P1;HPM_P2
2023/06/29 00:00:22;;;;;;;21.30;18.95;;;19.60;99.90;;;;;;5048658;28;20067;-70
2023/06/29 00:02:48;;;;;;;22.00;19.10;;;19.60;99.90;;;;;;5044215;28;20071;-70
2023/06/29 00:05:18;;;;;;;20.70;18.00;;;19.60;99.90;;;;;;5046227;28;20047;-71
2023/06/29 00:07:43;;;;;;;21.60;18.60;;;19.60;99.90;;;;;;5048000;28;20053;-70
2023/06/29 00:10:10;;;;;;;25.00;19.15;;;19.50;99.90;;;;;;5037370;28;20053;-70
2023/06/29 00:12:36;;;;;;;22.97;20.00;;;19.50;99.90;;;;;;5053210;28;20438;-70
2023/06/29 00:15:03;;;;;;;25.00;18.25;;;19.50;99.90;;;;;;5049216;28;20048;-68
2023/06/29 00:17:29;;;;;;;23.10;18.95;;;19.50;99.90;;;;;;5050718;28;20136;-70
2023/06/29 00:19:55;;;;;;;21.65;18.55;;;19.50;99.90;;;;;;5050073;28;20040;-70
2023/06/29 00:22:21;;;;;;;22.65;19.20;;;19.50;99.90;;;;;;5038889;28;20057;-71
2023/06/29 00:24:55;;;;;;;24.05;18.10;;;19.50;99.90;;;;;;5033237;28;20045;-70
2023/06/29 00:27:21;;;;;;;23.45;18.90;;;19.50;99.90;;;;;;5031879;28;20094;-69
2023/06/29 00:29:46;;;;;;;23.90;19.80;;;19.50;99.90;;;;;;5052134;28;20040;-72
2023/06/29 00:32:13;;;;;;;23.08;18.92;;;19.50;99.90;;;;;;5054585;28;20060;-70
2023/06/29 00:34:39;;;;;;;25.55;19.05;;;19.50;99.90;;;;;;5048364;28;20051;-69
2023/06/29 00:37:05;;;;;;;20.90;18.15;;;19.50;99.90;;;;;;5046186;28;20142;-71
2023/06/29 00:39:32;;;;;;;22.70;19.20;;;19.50;99.90;;;;;;5054953;28;20048;-71
2023/06/29 00:41:58;;;;;;;21.60;19.05;;;19.40;99.90;;;;;;5051296;28;20052;-70
2023/06/29 00:44:24;;;;;;;25.60;19.40;;;19.40;99.90;;;;;;5041547;28;20071;-71
2023/06/29 00:46:52;;;;;;;23.73;18.90;;;19.40;99.90;;;;;;5042108;28;20506;-70
2023/06/29 00:49:19;;;;;;;27.83;20.10;;;19.40;99.90;;;;;;5045231;28;20060;-70
2023/06/29 00:51:50;;;;;;;26.25;18.90;;;19.40;99.90;;;;;;5044146;28;20044;-70
2023/06/29 00:54:20;;;;;;;21.58;19.27;;;19.40;99.90;;;;;;5043872;28;20053;-70
2023/06/29 00:56:46;;;;;;;21.98;19.67;;;19.40;99.90;;;;;;5043673;28;20052;-69
2023/06/29 00:59:12;;;;;;;26.05;19.63;;;19.40;99.90;;;;;;5044178;28;20067;-70
2023/06/29 01:01:39;;;;;;;23.90;19.67;;;19.30;99.90;;;;;;5042935;28;20144;-71
2023/06/29 01:04:07;;;;;;;25.98;20.10;;;19.30;99.90;;;;;;5043635;28;20060;-70
2023/06/29 01:06:44;;;;;;;22.88;19.35;;;19.30;99.90;;;;;;5048817;28;20067;-70
2023/06/29 01:09:11;;;;;;;;;;;19.30;99.90;;;;;;5048020;28;20048;-70
2023/06/29 01:11:37;;;;;;;22.13;19.15;;;19.30;99.90;;;;;;5023175;28;19925;-70
2023/06/29 01:14:05;;;;;;;22.58;19.65;;;19.30;99.90;;;;;;5029358;28;20083;-71
2023/06/29 01:16:34;;;;;;;23.60;20.27;;;19.30;99.90;;;;;;5044264;28;20045;-70
2023/06/29 01:19:05;;;;;;;22.70;19.77;;;19.30;99.90;;;;;;5038728;28;20053;-69
2023/06/29 01:21:39;;;;;;;24.23;20.10;;;19.30;99.90;;;;;;5048625;28;20052;-70
2023/06/29 01:24:05;;;;;;;24.98;20.90;;;19.20;99.90;;;;;;5046751;28;20059;-72
2023/06/29 01:26:32;;;;;;;24.05;20.63;;;19.20;99.90;;;;;;5027857;28;20435;-71
2023/06/29 01:28:58;;;;;;;24.27;20.17;;;19.20;99.90;;;;;;5050207;28;20520;-69
2023/06/29 01:31:28;;;;;;;24.48;20.60;;;19.20;99.90;;;;;;5050633;28;20080;-70
2023/06/29 01:33:54;;;;;;;24.90;20.55;;;19.30;99.90;;;;;;5040837;28;20048;-69
2023/06/29 01:36:40;;;;;;;23.60;19.95;;;19.30;99.90;;;;;;5046819;28;20094;-70
2023/06/29 01:39:18;;;;;;;23.48;20.55;;;19.20;99.90;;;;;;5025794;28;20053;-70
2023/06/29 01:41:45;;;;;;;23.67;20.35;;;19.30;99.90;;;;;;5045359;28;20044;-72
2023/06/29 01:44:16;;;;;;;23.15;20.70;;;19.30;99.90;;;;;;5052655;28;20055;-69
2023/06/29 01:46:45;;;;;;;23.58;21.10;;;19.20;99.90;;;;;;5032000;28;20044;-69
2023/06/29 01:49:12;;;;;;;23.65;21.08;;;19.30;99.90;;;;;;5050973;28;20139;-69
2023/06/29 01:51:37;;;;;;;23.70;21.08;;;19.30;99.90;;;;;;5032085;28;20072;-69
2023/06/29 01:54:03;;;;;;;23.67;20.15;;;19.30;99.90;;;;;;5021965;28;20136;-70
2023/06/29 01:56:29;;;;;;;23.23;20.67;;;19.30;99.90;;;;;;5034959;28;20551;-71
2023/06/29 01:58:54;;;;;;;22.85;20.42;;;19.30;99.90;;;;;;5049019;28;20790;-70
2023/06/29 02:01:20;;;;;;;22.67;20.17;;;19.30;99.90;;;;;;5029422;28;20532;-69
2023/06/29 02:03:46;;;;;;;25.25;20.67;;;19.30;99.90;;;;;;5028115;28;20049;-69
2023/06/29 02:06:12;;;;;;;22.43;20.03;;;19.30;99.90;;;;;;5044297;28;21112;-69
2023/06/29 02:08:38;;;;;;;25.60;20.17;;;19.30;99.90;;;;;;5035801;28;20051;-71
2023/06/29 02:11:04;;;;;;;24.40;19.85;;;19.30;99.90;;;;;;5050763;28;20124;-70
2023/06/29 02:13:30;;;;;;;25.33;20.73;;;19.30;99.90;;;;;;5052269;28;20111;-71
2023/06/29 02:15:56;;;;;;;23.20;19.77;;;19.30;99.90;;;;;;5048464;28;20673;-70
2023/06/29 02:18:21;;;;;;;25.20;20.48;;;19.30;99.90;;;;;;5031967;28;20431;-69
2023/06/29 02:20:47;;;;;;;21.50;19.20;;;19.30;99.90;;;;;;5047487;28;20044;-70
2023/06/29 02:23:12;;;;;;;22.95;20.13;;;19.30;99.90;;;;;;5050390;28;20048;-69
2023/06/29 02:25:38;;;;;;;22.35;19.88;;;19.30;99.90;;;;;;5047623;28;20048;-72
2023/06/29 02:28:04;;;;;;;26.30;20.48;;;19.30;99.90;;;;;;5024163;28;20049;-70
2023/06/29 02:30:29;;;;;;;23.60;19.95;;;19.30;99.90;;;;;;5049738;28;20044;-70
2023/06/29 02:32:55;;;;;;;23.35;20.63;;;19.30;99.90;;;;;;5052423;28;20431;-70
2023/06/29 02:35:21;;;;;;;21.98;19.50;;;19.20;99.90;;;;;;5053405;28;20115;-70
2023/06/29 02:37:46;;;;;;;24.08;20.48;;;19.20;99.90;;;;;;5052533;28;20055;-70
2023/06/29 02:40:12;;;;;;;25.83;21.95;;;19.20;99.90;;;;;;5055126;28;20179;-70
2023/06/29 02:42:38;;;;;;;25.13;21.15;;;19.20;99.90;;;;;;5055961;28;20091;-70
2023/06/29 02:45:04;;;;;;;27.60;21.17;;;19.20;99.90;;;;;;5038809;28;20048;-72
2023/06/29 02:47:30;;;;;;;25.92;22.17;;;19.20;99.90;;;;;;5055925;28;20050;-70
2023/06/29 02:49:56;;;;;;;26.02;22.42;;;19.20;99.90;;;;;;5034345;28;20044;-73
2023/06/29 02:52:21;;;;;;;28.00;23.95;;;19.20;99.90;;;;;;5055165;28;20144;-71
2023/06/29 02:54:47;;;;;;;25.08;22.10;;;19.20;99.90;;;;;;5044041;28;20037;-68
2023/06/29 02:57:13;;;;;;;26.05;21.38;;;19.20;99.90;;;;;;5045568;28;20052;-69
2023/06/29 02:59:38;;;;;;;24.70;22.13;;;19.20;99.90;;;;;;5045433;28;20044;-70
2023/06/29 03:02:05;;;;;;;24.20;21.63;;;19.20;99.90;;;;;;5049994;28;20046;-69
2023/06/29 03:04:30;;;;;;;25.67;21.30;;;19.20;99.90;;;;;;5035881;28;20055;-70
2023/06/29 03:06:56;;;;;;;24.05;21.52;;;19.20;99.90;;;;;;5053798;28;20040;-70
2023/06/29 03:09:21;;;;;;;24.30;21.80;;;19.20;99.90;;;;;;5053589;28;20412;-69
2023/06/29 03:11:47;;;;;;;24.98;20.25;;;19.20;99.90;;;;;;5026151;28;20036;-69
2023/06/29 03:14:13;;;;;;;24.30;21.70;;;19.20;99.90;;;;;;5035962;28;20049;-69
2023/06/29 03:16:39;;;;;;;24.85;22.10;;;19.20;99.90;;;;;;5048549;28;20072;-71
2023/06/29 03:19:04;;;;;;;26.15;22.42;;;19.20;99.90;;;;;;5052003;28;20048;-70
2023/06/29 03:21:30;;;;;;;25.58;22.77;;;19.20;99.90;;;;;;5056033;28;20414;-69
2023/06/29 03:23:56;;;;;;;28.02;23.40;;;19.20;99.90;;;;;;5051226;28;20462;-70
2023/06/29 03:26:21;;;;;;;24.02;21.50;;;19.20;99.90;;;;;;5048397;28;20048;-71
2023/06/29 03:28:47;;;;;;;25.77;21.67;;;19.20;99.90;;;;;;5032298;28;20037;-69
2023/06/29 03:31:13;;;;;;;24.42;21.88;;;19.20;99.90;;;;;;5027956;28;20043;-68
2023/06/29 03:33:39;;;;;;;24.20;21.20;;;19.20;99.90;;;;;;5024043;28;20048;-69
2023/06/29 03:36:09;;;;;;;25.98;21.92;;;19.20;99.90;;;;;;5026824;28;20044;-71
2023/06/29 03:38:38;;;;;;;25.27;21.90;;;19.20;99.90;;;;;;5024523;28;20037;-69
2023/06/29 03:41:03;;;;;;;26.35;22.23;;;19.20;99.90;;;;;;5024653;28;20172;-70
2023/06/29 03:43:29;;;;;;;28.63;21.65;;;19.20;99.90;;;;;;5051351;28;20645;-69
2023/06/29 03:45:57;;;;;;;24.42;21.83;;;19.20;99.90;;;;;;5059025;28;20051;-70
2023/06/29 03:48:27;;;;;;;24.10;21.48;;;19.20;99.90;;;;;;5048032;28;20048;-70
2023/06/29 03:50:56;;;;;;;25.35;22.70;;;19.20;99.90;;;;;;5051178;28;20047;-69
2023/06/29 03:53:22;;;;;;;26.55;22.45;;;19.20;99.90;;;;;;5040613;28;20089;-70
2023/06/29 03:55:48;;;;;;;25.75;21.92;;;19.20;99.90;;;;;;5033300;28;20044;-71
2023/06/29 03:58:15;;;;;;;25.42;22.02;;;19.30;99.90;;;;;;5041112;28;22483;-70
2023/06/29 04:00:41;;;;;;;26.02;21.10;;;19.30;99.90;;;;;;5039791;28;20049;-69
2023/06/29 04:03:06;;;;;;;25.35;22.55;;;19.30;99.90;;;;;;5049129;28;20048;-70
2023/06/29 04:05:32;;;;;;;27.92;24.67;;;19.30;99.90;;;;;;5047893;28;20041;-69
2023/06/29 04:08:02;;;;;;;32.67;28.45;;;19.30;99.90;;;;;;5022126;28;20442;-69
2023/06/29 04:10:28;;;;;;;32.03;28.73;;;19.30;99.90;;;;;;5054939;28;20502;-70
2023/06/29 04:12:53;;;;;;;32.88;29.52;;;19.40;99.90;;;;;;5031937;28;20131;-69
2023/06/29 04:15:19;;;;;;;41.13;36.90;;;19.30;99.90;;;;;;5053999;28;20119;-69
2023/06/29 04:17:44;;;;;;;53.13;47.60;;;19.30;99.90;;;;;;5053216;28;20079;-69
2023/06/29 04:20:11;;;;;;;78.07;69.47;;;19.30;99.90;;;;;;5054644;28;20075;-70
2023/06/29 04:22:36;;;;;;;81.38;70.90;;;19.40;99.90;;;;;;5035807;28;20431;-69
2023/06/29 04:25:02;;;;;;;99.60;85.60;;;19.30;99.90;;;;;;5043390;28;20057;-69
2023/06/29 04:27:29;;;;;;;111.32;92.88;;;19.30;99.90;;;;;;5053271;28;20048;-71
2023/06/29 04:29:55;;;;;;;116.85;93.80;;;19.40;99.90;;;;;;5045791;28;20102;-70
2023/06/29 04:32:20;;;;;;;107.45;79.80;;;19.30;99.90;;;;;;5050499;28;20044;-70
2023/06/29 04:34:47;;;;;;;77.78;59.17;;;19.30;99.90;;;;;;5032568;28;20383;-69
2023/06/29 04:37:13;;;;;;;78.75;54.17;;;19.40;99.90;;;;;;5035138;28;20090;-69
2023/06/29 04:39:39;;;;;;;60.38;45.38;;;19.40;99.90;;;;;;5051769;28;20044;-71
2023/06/29 04:42:10;;;;;;;48.67;35.13;;;19.40;99.90;;;;;;5025227;28;20060;-71
2023/06/29 04:44:37;;;;;;;43.47;31.15;;;19.40;99.90;;;;;;5051267;28;21780;-72
2023/06/29 04:47:03;;;;;;;35.92;27.05;;;19.40;99.90;;;;;;5045379;28;20166;-70
2023/06/29 04:49:36;;;;;;;36.55;26.52;;;19.40;99.90;;;;;;5040425;28;20502;-69
2023/06/29 04:52:03;;;;;;;37.28;29.42;;;19.40;99.90;;;;;;5035917;28;20049;-71
2023/06/29 04:54:29;;;;;;;41.67;32.67;;;19.50;99.90;;;;;;5047676;28;20105;-69
2023/06/29 04:56:56;;;;;;;51.78;40.15;;;19.50;99.90;;;;;;5054081;28;20142;-69
2023/06/29 04:59:24;;;;;;;49.88;42.83;;;19.40;99.90;;;;;;5044618;28;20044;-69
2023/06/29 05:01:49;;;;;;;51.85;40.75;;;19.50;99.90;;;;;;5048576;28;20056;-69
2023/06/29 05:04:15;;;;;;;44.17;39.03;;;19.50;99.90;;;;;;5028319;28;20068;-70
2023/06/29 05:06:41;;;;;;;45.67;38.70;;;19.60;99.90;;;;;;5041665;28;21873;-70
2023/06/29 05:09:07;;;;;;;45.75;39.50;;;19.70;99.90;;;;;;5042381;28;21657;-69
2023/06/29 05:11:34;;;;;;;45.45;38.55;;;19.70;99.90;;;;;;5042571;28;20049;-69
2023/06/29 05:14:00;;;;;;;40.08;35.88;;;19.80;99.90;;;;;;5045428;28;20044;-70
2023/06/29 05:16:26;;;;;;;38.60;32.22;;;19.90;99.90;;;;;;5047121;28;20097;-72
2023/06/29 05:18:52;;;;;;;34.67;30.98;;;19.90;99.90;;;;;;5048292;28;20056;-69
2023/06/29 05:21:18;;;;;;;38.72;28.63;;;20.00;99.90;;;;;;5029642;28;20079;-68
2023/06/29 05:23:43;;;;;;;28.13;24.73;;;20.10;99.90;;;;;;5033890;28;20143;-70
2023/06/29 05:26:09;;;;;;;27.63;23.42;;;20.10;99.90;;;;;;5045581;28;20159;-69
2023/06/29 05:28:35;;;;;;;30.40;23.40;;;20.10;99.90;;;;;;5053748;28;20051;-69
2023/06/29 05:31:01;;;;;;;26.40;21.58;;;20.20;99.90;;;;;;5048291;28;20081;-69
2023/06/29 05:33:27;;;;;;;25.95;21.70;;;20.30;99.90;;;;;;5047132;28;20052;-70
2023/06/29 05:35:53;;;;;;;24.58;21.77;;;20.40;99.90;;;;;;5048679;28;22777;-71
2023/06/29 05:38:19;;;;;;;28.02;22.50;;;20.40;99.90;;;;;;5032267;28;20041;-70
2023/06/29 05:40:44;;;;;;;28.10;22.58;;;20.50;99.90;;;;;;5025949;28;20139;-70
2023/06/29 05:43:10;;;;;;;26.20;21.13;;;20.50;99.90;;;;;;5046525;28;20526;-70
2023/06/29 05:45:36;;;;;;;24.45;19.92;;;20.50;99.90;;;;;;5023448;28;20048;-71
2023/06/29 05:48:02;;;;;;;29.58;21.42;;;20.60;99.90;;;;;;5040470;28;20049;-70
2023/06/29 05:50:28;;;;;;;23.88;20.35;;;20.60;99.90;;;;;;5025559;28;20106;-70
2023/06/29 05:52:54;;;;;;;26.40;20.75;;;20.70;99.90;;;;;;5046050;28;20406;-69
2023/06/29 05:55:19;;;;;;;29.45;20.92;;;20.80;99.90;;;;;;5027091;28;20048;-70
2023/06/29 05:57:45;;;;;;;23.35;19.48;;;20.80;99.90;;;;;;5030771;28;20056;-72
2023/06/29 06:00:12;;;;;;;25.95;20.58;;;20.80;99.90;;;;;;5044386;28;20048;-74
2023/06/29 06:02:41;;;;;;;26.42;20.52;;;20.90;99.90;;;;;;5051127;28;20155;-73
2023/06/29 06:05:10;;;;;;;25.63;21.70;;;20.90;99.90;;;;;;5050330;28;20048;-74
2023/06/29 06:07:36;;;;;;;25.70;22.25;;;20.90;99.90;;;;;;5042203;28;20055;-73
2023/06/29 06:10:02;;;;;;;25.77;22.60;;;21.00;99.90;;;;;;5047657;28;20032;-73
2023/06/29 06:12:28;;;;;;;25.35;21.70;;;21.10;99.90;;;;;;5030157;28;20097;-72
2023/06/29 06:14:54;;;;;;;25.92;21.98;;;21.10;99.90;;;;;;5031888;28;20045;-73
2023/06/29 06:17:19;;;;;;;26.48;21.90;;;21.10;99.90;;;;;;5029728;28;20128;-73
2023/06/29 06:19:45;;;;;;;29.33;22.58;;;21.20;99.90;;;;;;5054686;28;21068;-72
2023/06/29 06:22:11;;;;;;;26.52;22.30;;;21.20;99.90;;;;;;5034946;28;20052;-73
2023/06/29 06:24:37;;;;;;;27.00;23.00;;;21.20;99.90;;;;;;5054267;28;20514;-73
2023/06/29 06:27:03;;;;;;;30.67;24.45;;;21.30;99.90;;;;;;5043484;28;20059;-73
2023/06/29 06:29:29;;;;;;;30.13;23.77;;;21.30;99.90;;;;;;5023622;28;20067;-73
2023/06/29 06:31:55;;;;;;;25.77;22.15;;;21.30;99.90;;;;;;5045662;28;20041;-74
2023/06/29 06:34:20;;;;;;;25.73;22.35;;;21.20;99.90;;;;;;5041791;28;20067;-74
2023/06/29 06:36:47;;;;;;;29.65;23.52;;;21.20;99.90;;;;;;5041364;28;20609;-73
2023/06/29 06:39:14;;;;;;;29.98;23.50;;;21.20;99.90;;;;;;5031031;28;20044;-76
2023/06/29 06:41:41;;;;;;;27.92;22.17;;;21.20;99.90;;;;;;5030842;28;20073;-73
2023/06/29 06:44:07;;;;;;;29.80;23.08;;;21.30;99.90;;;;;;5026969;28;20067;-73
2023/06/29 06:46:33;;;;;;;28.50;22.57;;;21.30;99.90;;;;;;5029971;28;20044;-73
2023/06/29 06:48:59;;;;;;;28.38;23.48;;;21.30;99.90;;;;;;5023783;28;20837;-74
2023/06/29 06:51:25;;;;;;;29.38;23.85;;;21.30;99.90;;;;;;5047590;28;20041;-74
2023/06/29 06:53:54;;;;;;;29.05;24.65;;;21.30;99.90;;;;;;5046931;28;20040;-74
2023/06/29 06:56:22;;;;;;;30.70;24.55;;;21.30;99.90;;;;;;5033282;28;20652;-74
2023/06/29 06:58:48;;;;;;;27.80;23.10;;;21.20;99.90;;;;;;5046643;28;20059;-74
2023/06/29 07:01:15;;;;;;;28.27;24.50;;;21.20;99.90;;;;;;5029711;28;20048;-73
2023/06/29 07:03:41;;;;;;;27.48;24.35;;;21.20;99.90;;;;;;5048126;28;20257;-75
2023/06/29 07:06:07;;;;;;;26.85;23.75;;;21.20;99.90;;;;;;5044295;28;20051;-76
2023/06/29 07:08:35;;;;;;;30.60;25.33;;;21.30;99.90;;;;;;5028736;28;20052;-77
2023/06/29 07:11:01;;;;;;;26.00;23.00;;;21.30;99.90;;;;;;5044844;28;20043;-75
2023/06/29 07:13:31;;;;;;;33.78;25.60;;;21.30;99.90;;;;;;5050331;28;20548;-75
2023/06/29 07:16:00;;;;;;;31.23;25.98;;;21.40;99.90;;;;;;5055026;28;20075;-77
2023/06/29 07:18:25;;;;;;;31.42;26.27;;;21.50;99.90;;;;;;5052556;28;20036;-76
2023/06/29 07:20:51;;;;;;;30.67;27.23;;;21.50;99.90;;;;;;5055637;28;20419;-76
2023/06/29 07:23:17;;;;;;;30.23;26.92;;;21.60;99.90;;;;;;5034921;28;20128;-75
2023/06/29 07:25:43;;;;;;;36.13;27.60;;;21.60;99.90;;;;;;5050539;28;20037;-75
2023/06/29 07:28:08;;;;;;;30.05;26.85;;;21.60;99.90;;;;;;5045837;28;20049;-75
2023/06/29 07:30:34;;;;;;;31.38;26.42;;;21.70;99.90;;;;;;5050192;28;20048;-77
2023/06/29 07:33:00;;;;;;;34.28;26.80;;;21.70;99.90;;;;;;5050469;28;20053;-75
2023/06/29 07:35:25;;;;;;;31.98;27.00;;;21.70;99.90;;;;;;5043024;28;20045;-74
2023/06/29 07:37:51;;;;;;;30.70;27.10;;;21.70;99.90;;;;;;5037139;28;20285;-75
2023/06/29 07:40:17;;;;;;;32.35;27.73;;;21.80;99.90;;;;;;5032955;28;20041;-71
2023/06/29 07:42:43;;;;;;;29.80;26.20;;;21.80;99.90;;;;;;5060047;28;20049;-70
2023/06/29 07:45:08;;;;;;;30.05;26.98;;;21.80;99.90;;;;;;5022803;28;20091;-71
2023/06/29 07:47:34;;;;;;;32.25;27.63;;;21.80;99.90;;;;;;5040795;28;20036;-70
2023/06/29 07:50:00;;;;;;;30.20;26.95;;;21.90;99.90;;;;;;5036290;28;20053;-70
2023/06/29 07:52:26;;;;;;;31.70;28.25;;;21.90;99.90;;;;;;5036793;28;20338;-71
2023/06/29 07:54:52;;;;;;;30.52;27.02;;;21.90;99.90;;;;;;5029994;28;20048;-70
2023/06/29 07:57:18;;;;;;;34.03;26.55;;;21.90;99.90;;;;;;5047297;28;20032;-71
2023/06/29 07:59:43;;;;;;;29.83;26.08;;;22.00;99.90;;;;;;5032482;28;20117;-73
2023/06/29 08:02:09;;;;;;;32.75;26.30;;;22.00;99.90;;;;;;5036772;28;20090;-73
2023/06/29 08:04:35;;;;;;;32.65;26.88;;;22.00;99.90;;;;;;5042083;28;20080;-73
2023/06/29 08:07:00;;;;;;;32.25;26.95;;;22.00;99.90;;;;;;5057416;28;20064;-73
2023/06/29 08:09:29;;;;;;;30.75;27.30;;;22.10;99.90;;;;;;5049209;28;20105;-73
2023/06/29 08:11:54;;;;;;;33.90;28.08;;;22.10;99.90;;;;;;5036617;28;20049;-74
2023/06/29 08:14:20;;;;;;;34.85;28.45;;;22.20;99.90;;;;;;5055867;28;20040;-71
2023/06/29 08:16:46;;;;;;;31.73;27.45;;;22.20;99.90;;;;;;5048239;28;20036;-71
2023/06/29 08:19:14;;;;;;;35.50;26.88;;;22.20;99.90;;;;;;5047008;28;20051;-71
2023/06/29 08:21:41;;;;;;;35.60;28.63;;;22.40;99.90;;;;;;5032061;28;20549;-70
2023/06/29 08:24:10;;;;;;;32.25;28.65;;;22.40;99.90;;;;;;5048569;28;20514;-71
2023/06/29 08:26:35;;;;;;;36.50;28.63;;;22.40;99.90;;;;;;5056989;28;20059;-71
2023/06/29 08:29:01;;;;;;;34.78;29.13;;;22.40;99.90;;;;;;5044385;28;20101;-71
2023/06/29 08:31:27;;;;;;;33.10;29.42;;;22.50;99.90;;;;;;5049446;28;20052;-73
2023/06/29 08:33:53;;;;;;;33.00;28.08;;;22.50;99.90;;;;;;5036119;28;20071;-73
2023/06/29 08:36:19;;;;;;;34.38;27.58;;;22.50;99.90;;;;;;5047213;28;20451;-71
2023/06/29 08:38:48;;;;;;;31.75;27.52;;;22.50;99.90;;;;;;5050320;28;20271;-72
2023/06/29 08:41:15;;;;;;;31.17;27.55;;;22.50;99.90;;;;;;5050808;28;20502;-72
2023/06/29 08:43:41;;;;;;;;;;;22.50;99.90;;;;;;5053415;28;20063;-74
2023/06/29 08:46:07;;;;;;;30.43;26.70;;;22.50;99.90;;;;;;5035862;28;21101;-73
2023/06/29 08:48:34;;;;;;;30.30;25.93;;;22.50;99.90;;;;;;5021545;28;20052;-71
2023/06/29 08:51:03;;;;;;;34.25;27.90;;;22.50;99.90;;;;;;5044727;28;20508;-72
2023/06/29 08:53:28;;;;;;;34.50;28.88;;;22.50;99.90;;;;;;5037289;28;20086;-72
2023/06/29 08:55:55;;;;;;;33.28;27.38;;;22.50;99.90;;;;;;5052521;28;20052;-71
2023/06/29 08:58:24;;;;;;;34.17;27.15;;;22.60;99.90;;;;;;5037998;28;20153;-71
2023/06/29 09:00:53;;;;;;;35.35;27.80;;;22.50;99.90;;;;;;5034431;28;20057;-72
2023/06/29 09:03:21;;;;;;;35.17;26.63;;;22.60;99.90;;;;;;5024862;28;20048;-71
2023/06/29 09:05:47;;;;;;;32.90;27.13;;;22.60;99.90;;;;;;5029784;28;20049;-72
2023/06/29 09:08:13;;;;;;;29.40;26.13;;;22.60;99.90;;;;;;5013914;28;20519;-72
2023/06/29 09:10:40;;;;;;;32.40;27.20;;;22.70;99.90;;;;;;5011068;28;20049;-70
2023/06/29 09:13:07;;;;;;;;;;;22.80;99.90;;;;;;5010468;28;20045;-71
2023/06/29 09:15:33;;;;;;;32.03;26.45;;;22.80;99.90;;;;;;5034541;28;21693;-72
2023/06/29 09:17:58;;;;;;;32.22;26.92;;;22.90;99.90;;;;;;5032771;28;20098;-73
2023/06/29 09:20:25;;;;;;;31.70;25.70;;;23.00;99.90;;;;;;5019890;28;20105;-73
2023/06/29 09:22:51;;;;;;;32.00;26.65;;;23.20;99.90;;;;;;5031075;28;20607;-71
2023/06/29 09:25:18;;;;;;;30.92;25.88;;;23.30;99.90;;;;;;5001810;28;20106;-72
2023/06/29 09:27:44;;;;;;;30.08;25.30;;;23.40;99.90;;;;;;5022466;28;20048;-71
2023/06/29 09:30:18;;;;;;;33.13;23.88;;;23.50;99.90;;;;;;5024963;28;20063;-71
2023/06/29 09:32:44;;;;;;;27.05;21.30;;;23.60;99.90;;;;;;5004429;28;20495;-71
2023/06/29 09:35:09;;;;;;;28.80;22.40;;;23.70;99.90;;;;;;5004616;28;20060;-71
2023/06/29 09:37:36;;;;;;;28.23;21.85;;;23.80;99.90;;;;;;5009838;28;20459;-71
2023/06/29 09:40:09;;;;;;;27.60;21.90;;;23.90;99.90;;;;;;5025894;28;20041;-71
2023/06/29 09:42:38;;;;;;;25.08;21.08;;;23.90;99.90;;;;;;5036555;28;20079;-71
2023/06/29 09:45:11;;;;;;;24.33;21.17;;;24.00;99.90;;;;;;5031562;28;20045;-71
2023/06/29 09:47:47;;;;;;;26.77;21.63;;;24.10;99.90;;;;;;5033182;28;20477;-70
2023/06/29 09:50:17;;;;;;;25.98;22.65;;;24.20;99.90;;;;;;5034880;28;20084;-70
2023/06/29 09:52:47;;;;;;;24.10;21.10;;;24.30;99.90;;;;;;5015944;28;20048;-71
2023/06/29 09:55:14;;;;;;;25.73;21.50;;;24.40;99.90;;;;;;5012734;28;20053;-69
2023/06/29 09:57:52;;;;;;;34.05;22.73;;;24.40;99.90;;;;;;5007305;28;20095;-71
2023/06/29 10:00:22;;;;;;;27.63;21.85;;;24.50;99.90;;;;;;5052241;28;20041;-73
2023/06/29 10:02:47;;;;;;;26.73;22.58;;;24.50;99.90;;;;;;5034662;28;22345;-73
2023/06/29 10:05:13;;;;;;;27.30;23.15;;;24.50;99.90;;;;;;5056725;28;20119;-73
2023/06/29 10:07:41;;;;;;;24.83;21.23;;;24.40;99.90;;;;;;5027514;28;20086;-72
2023/06/29 10:10:10;;;;;;;26.23;21.98;;;24.40;99.90;;;;;;5035341;28;20046;-72
2023/06/29 10:12:36;;;;;;;26.42;23.30;;;24.30;99.90;;;;;;5053571;28;20115;-71
2023/06/29 10:15:08;;;;;;;26.77;21.33;;;24.30;99.90;;;;;;5038069;28;20102;-73
2023/06/29 10:18:02;;;;;;;24.55;21.85;;;24.20;99.90;;;;;;5049286;28;20041;-72
2023/06/29 10:20:31;;;;;;;23.17;20.65;;;24.10;99.90;;;;;;5049828;28;20059;-74
2023/06/29 10:23:01;;;;;;;25.83;21.40;;;24.00;99.90;;;;;;5040589;28;20056;-77
2023/06/29 10:25:28;;;;;;;27.70;21.30;;;23.90;99.90;;;;;;5028191;28;20769;-74
2023/06/29 10:27:56;;;;;;;23.65;21.08;;;23.80;99.90;;;;;;5044240;28;20499;-75
2023/06/29 10:30:21;;;;;;;24.50;20.67;;;23.70;99.90;;;;;;5029151;28;20075;-73
2023/06/29 10:32:51;;;;;;;27.05;21.88;;;23.60;99.90;;;;;;5050692;28;20120;-76
2023/06/29 10:35:17;;;;;;;26.58;22.65;;;23.60;99.90;;;;;;5025183;28;20076;-74
2023/06/29 10:37:48;;;;;;;25.23;22.47;;;23.50;99.90;;;;;;5044670;28;20127;-74
2023/06/29 10:40:20;;;;;;;25.92;21.63;;;23.50;99.90;;;;;;5027825;28;20124;-74
2023/06/29 10:42:45;;;;;;;25.00;22.10;;;23.50;99.90;;;;;;5045904;28;20057;-74
2023/06/29 10:45:17;;;;;;;26.17;22.27;;;23.40;99.90;;;;;;5051726;28;20423;-74
2023/06/29 10:47:45;;;;;;;26.90;22.58;;;23.40;99.90;;;;;;5051258;28;20131;-74
2023/06/29 10:50:10;;;;;;;27.63;24.45;;;23.30;99.90;;;;;;5054291;28;20496;-74
2023/06/29 10:52:40;;;;;;;26.05;23.00;;;23.20;99.90;;;;;;5055661;28;20057;-75
2023/06/29 10:55:15;;;;;;;27.02;23.35;;;23.20;99.90;;;;;;5054732;28;20475;-74
2023/06/29 10:57:45;;;;;;;29.95;23.70;;;23.10;99.90;;;;;;5051453;28;20048;-73
2023/06/29 11:00:12;;;;;;;27.13;23.10;;;22.90;99.90;;;;;;5057467;28;20514;-73
2023/06/29 11:02:38;;;;;;;;;;;22.90;99.90;;;;;;5051625;28;20040;-74
2023/06/29 11:05:04;;;;;;;25.77;23.03;;;22.80;99.90;;;;;;5052546;28;19928;-75
2023/06/29 11:07:30;;;;;;;27.13;23.45;;;22.70;99.90;;;;;;5055518;28;20052;-75
2023/06/29 11:10:00;;;;;;;26.38;23.48;;;22.70;99.90;;;;;;5039107;28;20048;-75
2023/06/29 11:12:26;;;;;;;28.20;23.83;;;22.70;99.90;;;;;;5036197;28;20127;-72
2023/06/29 11:14:51;;;;;;;30.60;24.92;;;22.70;99.90;;;;;;5031466;28;20052;-73
2023/06/29 11:17:18;;;;;;;28.60;25.60;;;22.70;99.90;;;;;;5044553;28;20040;-73
2023/06/29 11:19:45;;;;;;;28.83;25.73;;;22.80;99.90;;;;;;5044186;28;20055;-73
2023/06/29 11:22:11;;;;;;;27.63;24.65;;;22.90;99.90;;;;;;5040948;28;20139;-73
2023/06/29 11:24:37;;;;;;;35.50;27.42;;;23.00;99.90;;;;;;5054150;28;20127;-73
2023/06/29 11:27:03;;;;;;;30.15;26.33;;;23.20;99.90;;;;;;5044113;28;20037;-73
2023/06/29 11:29:29;;;;;;;29.13;25.42;;;23.30;99.90;;;;;;5032888;28;20506;-73
2023/06/29 11:31:55;;;;;;;29.88;25.80;;;23.50;99.90;;;;;;5054325;28;20569;-73
2023/06/29 11:34:21;;;;;;;28.52;23.42;;;23.70;99.90;;;;;;5041853;28;20049;-74
2023/06/29 11:36:47;;;;;;;29.80;26.58;;;23.70;99.90;;;;;;5050867;28;20747;-76
2023/06/29 11:39:12;;;;;;;27.80;24.73;;;23.90;99.90;;;;;;5032471;28;20041;-74
2023/06/29 11:41:40;;;;;;;30.30;26.33;;;24.00;99.90;;;;;;5052295;28;20126;-74
2023/06/29 11:44:07;;;;;;;28.20;25.20;;;24.10;99.90;;;;;;5039113;28;20086;-73
2023/06/29 11:46:33;;;;;;;29.13;26.02;;;24.10;99.90;;;;;;5025709;28;20057;-73
2023/06/29 11:49:04;;;;;;;28.92;25.75;;;24.20;99.90;;;;;;5052319;28;20052;-74
2023/06/29 11:51:38;;;;;;;29.35;26.27;;;24.20;99.90;;;;;;5051089;28;20474;-75
2023/06/29 11:54:05;;;;;;;34.35;29.77;;;24.30;99.90;;;;;;5044374;28;20462;-75
2023/06/29 11:56:38;;;;;;;30.17;26.85;;;24.40;99.90;;;;;;5037344;28;20049;-76
2023/06/29 11:59:17;;;;;;;35.25;27.33;;;24.50;99.90;;;;;;5032321;28;20056;-76
2023/06/29 12:01:44;;;;;;;33.47;28.63;;;24.60;99.90;;;;;;5021852;28;20045;-77
2023/06/29 12:04:12;;;;;;;31.58;27.38;;;24.70;99.90;;;;;;5020004;28;20049;-78
2023/06/29 12:06:56;;;;;;;29.70;26.50;;;24.90;99.90;;;;;;5030472;28;20060;-77
2023/06/29 12:09:32;;;;;;;34.30;28.17;;;25.10;99.90;;;;;;5029751;28;20052;-78
2023/06/29 12:11:59;;;;;;;26.40;23.60;;;25.20;99.90;;;;;;5033356;28;20098;-76
2023/06/29 12:14:33;;;;;;;30.70;27.40;;;25.40;99.90;;;;;;5023244;28;20073;-78
2023/06/29 12:17:00;;;;;;;29.70;26.40;;;25.50;99.90;;;;;;5031651;28;20048;-79
2023/06/29 12:19:33;;;;;;;29.25;26.20;;;25.60;99.90;;;;;;5020234;28;20057;-80
2023/06/29 12:21:59;;;;;;;24.52;21.92;;;25.80;99.90;;;;;;5032228;28;20500;-78
2023/06/29 12:24:27;;;;;;;28.08;23.88;;;26.00;99.90;;;;;;5031766;28;20037;-75
2023/06/29 12:26:53;;;;;;;28.23;25.10;;;26.10;99.90;;;;;;5033441;28;20049;-76